Time;durP1;ratioP1;P1;durP2;ratioP2;P2;SDS_P1;SDS_P2;PMS_P1;PMS_P2;Temp;Humidity;BMP_temperature;BMP_pressure;BME280_temperature;BME280_humidity;BME280_pressure;Samples;Min_cycle;Max_cycle;Signal;HPM_P1;HPM_P2
2022/04/07 00:00:03;;;;;;;0.70;0.70;;;11.00;99.90;10.50;99091.00;;;;5098194;28;20314;-68
2022/04/07 00:02:39;;;;;;;1.20;0.90;;;11.00;99.90;10.10;99109.00;;;;5113700;28;20186;-68
2022/04/07 00:05:11;;;;;;;0.60;0.60;;;10.80;99.90;10.50;99085.00;;;;5115269;28;20179;-68
2022/04/07 00:07:37;;;;;;;0.70;0.70;;;10.80;99.90;10.40;99103.00;;;;5113107;28;20187;-68
2022/04/07 00:10:04;;;;;;;0.70;0.70;;;10.80;99.90;10.10;99084.00;;;;5093974;28;20183;-68
2022/04/07 00:12:38;;;;;;;0.60;0.60;;;10.70;99.90;10.40;99105.00;;;;5094088;28;20298;-68
2022/04/07 00:15:04;;;;;;;0.70;0.70;;;10.70;99.90;10.40;99094.00;;;;5110143;28;20199;-69
2022/04/07 00:17:35;;;;;;;5.13;2.60;;;10.60;99.90;9.60;99087.00;;;;5093683;28;20621;-69
2022/04/07 00:20:07;;;;;;;0.60;0.60;;;10.40;99.90;9.80;99086.00;;;;5094738;28;20272;-70
2022/04/07 00:22:39;;;;;;;0.70;0.70;;;10.30;99.90;9.50;99087.00;;;;5094382;28;20200;-69
2022/04/07 00:25:10;;;;;;;0.63;0.63;;;10.20;99.90;10.00;99055.00;;;;5110421;28;20172;-69
2022/04/07 00:27:40;;;;;;;1.13;1.13;;;10.30;99.90;9.80;99080.00;;;;5111377;28;20168;-69
2022/04/07 00:30:13;;;;;;;0.90;0.90;;;10.30;99.90;10.10;99076.00;;;;5110362;28;20547;-69
2022/04/07 00:32:45;;;;;;;0.60;0.60;;;10.40;99.90;10.10;99071.00;;;;5109655;28;20252;-69
2022/04/07 00:35:17;;;;;;;0.60;0.60;;;10.40;99.90;9.70;99061.00;;;;5110074;28;20209;-68
2022/04/07 00:37:49;;;;;;;0.60;0.60;;;10.20;99.90;9.90;99074.00;;;;5110924;28;20199;-67
2022/04/07 00:40:18;;;;;;;0.70;0.70;;;10.30;99.90;9.80;99059.00;;;;5095298;28;20317;-66
2022/04/07 00:42:53;;;;;;;0.60;0.60;;;10.20;99.90;9.70;99047.00;;;;5113417;28;20190;-67
2022/04/07 00:45:25;;;;;;;1.07;1.07;;;10.20;99.90;9.90;99009.00;;;;5097636;28;20248;-67
2022/04/07 00:47:58;;;;;;;0.60;0.60;;;10.30;99.90;9.70;99038.00;;;;5112076;28;20694;-68
2022/04/07 00:50:29;;;;;;;0.70;0.70;;;10.20;99.90;9.80;99010.00;;;;5112972;28;20202;-67
2022/04/07 00:53:02;;;;;;;0.70;0.70;;;10.10;99.90;10.00;99042.00;;;;5113741;28;20288;-68
2022/04/07 00:55:35;;;;;;;0.70;0.70;;;10.20;99.90;9.90;99031.00;;;;5112115;28;20645;-68
2022/04/07 00:58:08;;;;;;;0.97;0.97;;;10.20;99.90;9.60;99031.00;;;;5094920;28;20655;-68
2022/04/07 01:00:41;;;;;;;4.83;1.83;;;10.10;99.90;9.40;99014.00;;;;5113054;28;20180;-68
2022/04/07 01:03:15;;;;;;;1.23;1.17;;;10.00;99.90;9.40;99029.00;;;;5113894;28;20343;-68
2022/04/07 01:05:48;;;;;;;0.60;0.60;;;10.00;99.90;9.60;99004.00;;;;5113883;28;20179;-67
2022/04/07 01:08:17;;;;;;;4.47;1.43;;;10.10;99.90;9.60;99028.00;;;;5112832;28;20636;-66
2022/04/07 01:10:49;;;;;;;0.83;0.83;;;10.10;99.90;9.50;99031.00;;;;5075338;28;20187;-67
2022/04/07 01:13:15;;;;;;;3.60;1.47;;;10.00;99.90;9.50;99011.00;;;;5093569;28;20176;-67
2022/04/07 01:15:46;;;;;;;0.90;0.90;;;10.00;99.90;9.50;98999.00;;;;5075104;28;20665;-68
2022/04/07 01:18:21;;;;;;;0.80;0.80;;;10.00;99.90;9.70;98997.00;;;;5093277;28;20647;-67
2022/04/07 01:20:49;;;;;;;1.00;1.00;;;10.00;99.90;9.70;98995.00;;;;5076847;28;20317;-67
2022/04/07 01:23:25;;;;;;;1.10;1.00;;;10.10;99.90;9.50;99002.00;;;;5076150;28;20186;-67
2022/04/07 01:25:57;;;;;;;0.60;0.60;;;10.00;99.90;9.60;98988.00;;;;5075833;28;20186;-67
2022/04/07 01:28:28;;;;;;;1.43;0.93;;;10.10;99.90;9.60;98979.00;;;;5075026;28;20218;-67
2022/04/07 01:30:59;;;;;;;0.80;0.80;;;10.10;99.90;9.90;98974.00;;;;5075777;28;20549;-68
2022/04/07 01:33:34;;;;;;;2.77;1.30;;;10.20;99.90;9.70;98944.00;;;;5092789;28;20200;-67
2022/04/07 01:36:06;;;;;;;8.33;1.10;;;10.20;99.90;9.60;98961.00;;;;5093433;28;20635;-67
2022/04/07 01:38:37;;;;;;;0.60;0.60;;;10.10;99.90;9.80;98962.00;;;;5093932;28;20186;-66
2022/04/07 01:41:11;;;;;;;0.70;0.70;;;10.20;99.90;9.60;98943.00;;;;5093137;28;20220;-67
2022/04/07 01:43:43;;;;;;;0.60;0.60;;;10.20;99.90;10.00;98949.00;;;;5076104;28;20183;-67
2022/04/07 01:46:21;;;;;;;0.60;0.60;;;10.30;99.90;9.80;98941.00;;;;5092124;28;20186;-67
2022/04/07 01:48:48;;;;;;;0.67;0.67;;;10.30;99.90;9.50;98943.00;;;;5092564;28;20183;-65
2022/04/07 01:51:24;;;;;;;0.60;0.60;;;10.20;99.90;10.10;98936.00;;;;5092251;28;20204;-68
2022/04/07 01:53:53;;;;;;;0.70;0.70;;;10.30;99.90;9.80;98929.00;;;;5092803;28;20199;-68
2022/04/07 01:56:24;;;;;;;0.60;0.60;;;10.30;99.90;10.00;98898.00;;;;5091430;28;20181;-68
2022/04/07 01:58:52;;;;;;;0.73;0.73;;;10.40;99.90;9.70;98919.00;;;;5092679;28;20263;-68
2022/04/07 02:01:20;;;;;;;0.60;0.60;;;10.30;99.90;10.00;98908.00;;;;5092273;28;20226;-68
2022/04/07 02:03:52;;;;;;;0.73;0.73;;;10.40;99.90;10.00;98909.00;;;;5074173;28;20287;-67
2022/04/07 02:06:24;;;;;;;0.90;0.90;;;10.50;99.90;9.90;98905.00;;;;5091912;28;20198;-68
2022/04/07 02:08:53;;;;;;;0.60;0.60;;;10.50;99.90;10.00;98885.00;;;;5075826;28;20669;-67
2022/04/07 02:11:28;;;;;;;0.60;0.60;;;10.50;99.90;10.20;98883.00;;;;5090862;28;20203;-67
2022/04/07 02:13:54;;;;;;;1.43;0.87;;;10.50;99.90;10.20;98873.00;;;;5090600;28;20622;-68
2022/04/07 02:16:27;;;;;;;0.50;0.50;;;10.60;99.90;9.90;98865.00;;;;5091638;28;20636;-68
2022/04/07 02:18:53;;;;;;;0.50;0.50;;;10.60;99.90;10.30;98869.00;;;;5092267;28;20234;-68
2022/04/07 02:21:25;;;;;;;1.40;0.63;;;10.60;99.90;9.90;98854.00;;;;5074735;28;20218;-68
2022/04/07 02:23:56;;;;;;;0.70;0.70;;;10.60;99.90;10.10;98868.00;;;;5090473;28;20191;-68
2022/04/07 02:26:30;;;;;;;0.60;0.60;;;10.60;99.90;10.30;98871.00;;;;5091804;28;20194;-68
2022/04/07 02:29:05;;;;;;;1.57;1.50;;;10.70;99.90;10.20;98863.00;;;;5092133;28;20576;-68
2022/04/07 02:31:34;;;;;;;0.60;0.60;;;10.70;99.90;10.20;98844.00;;;;5091102;28;20278;-69
2022/04/07 02:34:05;;;;;;;9.33;2.00;;;10.70;99.90;10.10;98842.00;;;;5074392;28;20707;-68
2022/04/07 02:36:31;;;;;;;2.43;0.90;;;10.70;99.90;10.40;98831.00;;;;5074720;28;20655;-68
2022/04/07 02:39:02;;;;;;;1.33;1.33;;;10.80;99.90;10.10;98827.00;;;;5092347;28;20168;-67
2022/04/07 02:41:31;;;;;;;0.70;0.70;;;10.70;99.90;10.00;98832.00;;;;5075083;28;20180;-69
2022/04/07 02:44:02;;;;;;;0.60;0.60;;;10.70;99.90;10.10;98821.00;;;;5074319;28;20185;-68
2022/04/07 02:46:36;;;;;;;0.50;0.50;;;10.70;99.90;9.90;98821.00;;;;5091362;28;20176;-68
2022/04/07 02:49:07;;;;;;;0.97;0.97;;;10.60;99.90;10.20;98780.00;;;;5092247;28;20258;-68
2022/04/07 02:51:39;;;;;;;1.13;0.77;;;10.70;99.90;10.00;98787.00;;;;5075063;28;20206;-68
2022/04/07 02:54:10;;;;;;;0.50;0.50;;;10.70;99.90;10.30;98770.00;;;;5091589;28;20226;-68
2022/04/07 02:56:41;;;;;;;5.30;1.03;;;10.80;99.90;10.40;98785.00;;;;5091707;28;20173;-68
2022/04/07 02:59:13;;;;;;;0.87;0.50;;;10.80;99.90;10.10;98793.00;;;;5075168;28;20273;-68
2022/04/07 03:01:45;;;;;;;0.87;0.87;;;10.80;99.90;10.40;98774.00;;;;5092253;28;20189;-69
2022/04/07 03:04:19;;;;;;;0.70;0.70;;;10.80;99.90;10.60;98779.00;;;;5091135;28;20192;-69
2022/04/07 03:06:53;;;;;;;1.43;1.43;;;10.90;99.90;10.30;98778.00;;;;5091756;28;20234;-68
2022/04/07 03:09:24;;;;;;;0.70;0.70;;;10.90;99.90;10.10;98770.00;;;;5091439;28;20188;-68
2022/04/07 03:11:55;;;;;;;0.50;0.50;;;10.70;99.90;10.00;98760.00;;;;5090822;28;20211;-68
2022/04/07 03:14:27;;;;;;;0.50;0.50;;;10.70;99.90;10.30;98762.00;;;;5092065;28;20578;-69
2022/04/07 03:16:58;;;;;;;0.77;0.77;;;10.70;99.90;10.10;98763.00;;;;5091706;28;20218;-69
2022/04/07 03:19:24;;;;;;;2.53;2.03;;;10.70;99.90;10.00;98749.00;;;;5091627;28;20196;-68
2022/04/07 03:21:57;;;;;;;0.70;0.70;;;10.60;99.90;10.10;98743.00;;;;5114017;28;20194;-68
2022/04/07 03:24:29;;;;;;;0.50;0.50;;;10.70;99.90;10.10;98717.00;;;;5116690;28;20207;-68
2022/04/07 03:27:04;;;;;;;0.50;0.50;;;10.60;99.90;10.30;98742.00;;;;5115678;28;20172;-66
2022/04/07 03:29:34;;;;;;;0.90;0.90;;;10.70;99.90;10.30;98727.00;;;;5116910;28;20181;-67
2022/04/07 03:32:04;;;;;;;0.60;0.60;;;10.70;99.90;10.40;98729.00;;;;5116773;28;20222;-68
2022/04/07 03:34:31;;;;;;;0.50;0.50;;;10.80;99.90;10.10;98726.00;;;;5115838;28;20218;-68
2022/04/07 03:37:05;;;;;;;0.53;0.53;;;10.70;99.90;10.30;98711.00;;;;5114061;28;20231;-67
2022/04/07 03:39:37;;;;;;;0.50;0.50;;;10.70;99.90;10.10;98707.00;;;;5098661;28;20179;-67
2022/04/07 03:42:08;;;;;;;2.13;1.23;;;10.70;99.90;10.20;98687.00;;;;5097695;28;20242;-68
2022/04/07 03:44:34;;;;;;;1.60;1.50;;;10.70;99.90;10.10;98685.00;;;;5098489;28;20199;-68
2022/04/07 03:47:12;;;;;;;0.40;0.40;;;10.70;99.90;10.10;98666.00;;;;5115130;28;20156;-67
2022/04/07 03:49:44;;;;;;;1.00;0.80;;;10.70;99.90;10.10;98653.00;;;;5093928;28;20214;-67
2022/04/07 03:52:15;;;;;;;0.53;0.53;;;10.70;99.90;10.10;98650.00;;;;5093493;28;20203;-67
2022/04/07 03:54:41;;;;;;;0.40;0.40;;;10.70;99.90;10.40;98647.00;;;;5078014;28;20197;-67
2022/04/07 03:57:15;;;;;;;0.60;0.60;;;10.80;99.90;10.30;98639.00;;;;5077887;28;20187;-67
2022/04/07 03:59:46;;;;;;;0.53;0.53;;;10.80;99.90;10.30;98644.00;;;;5077433;28;20288;-68
2022/04/07 04:02:18;;;;;;;0.90;0.90;;;10.80;99.90;10.30;98621.00;;;;5094377;28;20647;-68
2022/04/07 04:04:52;;;;;;;0.50;0.50;;;10.80;99.90;10.20;98629.00;;;;5094768;28;20179;-68
2022/04/07 04:07:18;;;;;;;0.80;0.80;;;10.70;99.90;10.10;98624.00;;;;5094324;28;20881;-68
2022/04/07 04:09:52;;;;;;;6.77;2.53;;;10.70;99.90;10.00;98603.00;;;;5081598;28;20198;-68
2022/04/07 04:12:23;;;;;;;0.77;0.77;;;10.70;99.90;10.00;98551.00;;;;5114786;28;20212;-68
2022/04/07 04:14:54;;;;;;;0.50;0.50;;;10.60;99.90;10.10;98593.00;;;;5096811;28;20237;-67
2022/04/07 04:17:27;;;;;;;0.60;0.60;;;10.60;99.90;10.10;98615.00;;;;5114358;28;20172;-67
2022/04/07 04:20:01;;;;;;;1.47;1.37;;;10.60;99.90;9.90;98610.00;;;;5114217;28;20180;-67
2022/04/07 04:22:35;;;;;;;0.77;0.77;;;10.50;99.90;9.60;98572.00;;;;5114521;28;20678;-66
2022/04/07 04:25:10;;;;;;;1.03;1.03;;;10.30;99.90;9.70;98546.00;;;;5113957;28;20241;-67
2022/04/07 04:27:41;;;;;;;0.60;0.60;;;10.30;99.90;9.70;98573.00;;;;5115436;28;20188;-66
2022/04/07 04:30:08;;;;;;;0.70;0.70;;;10.30;99.90;9.60;98585.00;;;;5096983;28;20266;-66
2022/04/07 04:32:39;;;;;;;0.50;0.50;;;10.20;99.90;9.80;98584.00;;;;5114704;28;20305;-66
2022/04/07 04:35:08;;;;;;;1.03;1.00;;;10.30;99.90;9.70;98584.00;;;;5095809;28;20544;-67
2022/04/07 04:37:40;;;;;;;0.50;0.50;;;10.30;99.90;9.70;98540.00;;;;5097657;28;20706;-67
2022/04/07 04:40:07;;;;;;;0.53;0.53;;;10.20;99.90;9.70;98509.00;;;;5114497;28;20638;-67
2022/04/07 04:42:42;;;;;;;2.87;0.90;;;10.20;99.90;9.70;98556.00;;;;5114203;28;20213;-67
2022/04/07 04:45:14;;;;;;;2.10;1.40;;;10.30;99.90;9.70;98544.00;;;;5114363;28;20217;-67
2022/04/07 04:47:45;;;;;;;0.90;0.90;;;10.30;99.90;9.80;98539.00;;;;5096882;28;20221;-67
2022/04/07 04:50:13;;;;;;;0.60;0.60;;;10.30;99.90;9.80;98518.00;;;;5096994;28;20537;-67
2022/04/07 04:52:40;;;;;;;3.30;1.23;;;10.30;99.90;9.90;98507.00;;;;5112937;28;20714;-68
2022/04/07 04:55:07;;;;;;;0.60;0.60;;;10.40;99.90;10.30;98491.00;;;;5113535;28;20208;-68
2022/04/07 04:57:41;;;;;;;0.73;0.70;;;10.50;99.90;10.20;98489.00;;;;5096924;28;20173;-67
2022/04/07 05:00:13;;;;;;;1.47;1.37;;;10.50;99.90;9.90;98452.00;;;;5096947;28;20179;-68
2022/04/07 05:02:49;;;;;;;1.17;1.17;;;10.50;99.90;9.80;98428.00;;;;5114069;28;20199;-67
2022/04/07 05:05:15;;;;;;;1.43;1.37;;;10.50;99.90;9.70;98455.00;;;;5113230;28;20228;-67
2022/04/07 05:07:46;;;;;;;3.23;1.70;;;10.40;99.90;9.80;98436.00;;;;5096202;28;20574;-67
2022/04/07 05:10:18;;;;;;;1.57;1.33;;;10.40;99.90;9.80;98455.00;;;;5108669;28;20196;-67
2022/04/07 05:12:50;;;;;;;1.23;1.13;;;10.50;99.90;9.70;98413.00;;;;5092603;28;20223;-67
2022/04/07 05:15:27;;;;;;;1.13;1.13;;;10.40;99.90;9.80;98426.00;;;;5092899;28;20184;-67
2022/04/07 05:17:58;;;;;;;1.50;1.10;;;10.40;99.90;9.90;98422.00;;;;5093264;28;20634;-67
2022/04/07 05:20:29;;;;;;;0.87;0.73;;;10.50;99.90;10.00;98421.00;;;;5076508;28;20187;-67
2022/04/07 05:23:00;;;;;;;2.40;1.23;;;10.50;99.90;9.70;98413.00;;;;5093854;28;20191;-67
2022/04/07 05:25:37;;;;;;;0.97;0.97;;;10.40;99.90;9.60;98380.00;;;;5076549;28;20185;-66
2022/04/07 05:28:09;;;;;;;0.93;0.93;;;10.30;99.90;9.70;98413.00;;;;5092881;28;20180;-67
2022/04/07 05:30:35;;;;;;;1.53;0.93;;;10.30;99.90;9.60;98403.00;;;;5075103;28;20185;-67
2022/04/07 05:33:06;;;;;;;1.10;1.10;;;10.20;99.90;9.60;98411.00;;;;5076080;28;20216;-67
2022/04/07 05:35:37;;;;;;;2.77;0.70;;;10.20;99.90;9.50;98392.00;;;;5092734;28;20523;-67
2022/04/07 05:38:08;;;;;;;4.13;1.63;;;10.10;99.90;9.40;98378.00;;;;5094025;28;20186;-67
2022/04/07 05:40:42;;;;;;;1.77;0.90;;;10.10;99.90;9.40;98366.00;;;;5098038;28;20688;-67
2022/04/07 05:43:16;;;;;;;1.47;1.37;;;10.00;99.90;9.40;98382.00;;;;5112525;28;20660;-67
2022/04/07 05:45:53;;;;;;;0.70;0.70;;;10.00;99.90;9.50;98325.00;;;;5095988;28;20183;-67
2022/04/07 05:48:24;;;;;;;1.20;1.10;;;10.00;99.90;9.70;98355.00;;;;5095426;28;20231;-67
2022/04/07 05:50:55;;;;;;;1.27;1.00;;;10.10;99.90;9.70;98351.00;;;;5112505;28;20177;-67
2022/04/07 05:53:27;;;;;;;11.70;1.87;;;10.20;99.90;9.50;98328.00;;;;5112459;28;20205;-68
2022/04/07 05:56:02;;;;;;;0.60;0.60;;;10.10;99.90;9.70;98334.00;;;;5113370;28;20173;-68
2022/04/07 05:58:33;;;;;;;1.93;1.23;;;10.10;99.90;9.50;98339.00;;;;5095539;28;20522;-69
2022/04/07 06:01:07;;;;;;;1.93;1.83;;;10.10;99.90;9.80;98319.00;;;;5095477;28;20666;-68
2022/04/07 06:03:40;;;;;;;0.80;0.80;;;10.20;99.90;9.50;98319.00;;;;5095672;28;20244;-68
2022/04/07 06:06:11;;;;;;;0.93;0.93;;;10.10;99.90;9.70;98289.00;;;;5095204;28;20181;-68
2022/04/07 06:08:43;;;;;;;2.30;1.57;;;10.20;99.90;9.60;98278.00;;;;5112704;28;20185;-68
2022/04/07 06:11:09;;;;;;;1.20;1.10;;;10.20;99.90;9.60;98286.00;;;;5092431;28;20212;-68
2022/04/07 06:13:36;;;;;;;2.47;1.93;;;10.10;99.90;9.40;98286.00;;;;5094884;28;20197;-68
2022/04/07 06:16:07;;;;;;;1.73;1.63;;;10.00;99.90;9.40;98259.00;;;;5112671;28;20202;-68
2022/04/07 06:18:38;;;;;;;1.10;1.10;;;10.00;99.90;9.40;98258.00;;;;5095298;28;20182;-68
2022/04/07 06:21:10;;;;;;;1.00;1.00;;;10.00;99.90;9.30;98250.00;;;;5111670;28;20187;-69
2022/04/07 06:23:42;;;;;;;2.67;2.53;;;9.90;99.90;9.20;98238.00;;;;5094566;28;20245;-69
2022/04/07 06:26:13;;;;;;;1.10;1.10;;;9.90;99.90;9.50;98247.00;;;;5111663;28;20168;-69
2022/04/07 06:28:44;;;;;;;1.90;1.50;;;9.90;99.90;9.20;98219.00;;;;5112378;28;20172;-70
2022/04/07 06:31:10;;;;;;;1.00;1.00;;;9.90;99.90;9.30;98208.00;;;;5095093;28;20184;-70
2022/04/07 06:33:36;;;;;;;1.00;1.00;;;9.90;99.90;9.40;98220.00;;;;5095208;28;20192;-70
2022/04/07 06:36:08;;;;;;;1.10;1.10;;;10.00;99.90;9.80;98206.00;;;;5095275;28;20270;-71
2022/04/07 06:38:42;;;;;;;1.17;1.17;;;10.10;99.90;9.70;98202.00;;;;5094949;28;20227;-70
2022/04/07 06:41:13;;;;;;;1.03;1.03;;;10.10;99.90;9.50;98192.00;;;;5103038;28;20717;-70
2022/04/07 06:43:44;;;;;;;1.60;1.30;;;10.10;99.90;9.70;98172.00;;;;5073773;28;20283;-69
2022/04/07 06:46:18;;;;;;;1.47;1.37;;;10.20;99.90;9.70;98163.00;;;;5075090;28;20188;-70
2022/04/07 06:48:49;;;;;;;1.20;1.20;;;10.20;99.90;9.60;98159.00;;;;5092070;28;20185;-70
2022/04/07 06:51:21;;;;;;;1.50;1.40;;;10.20;99.90;9.70;98146.00;;;;5074129;28;20194;-70
2022/04/07 06:53:47;;;;;;;1.00;1.00;;;10.30;99.90;10.10;98156.00;;;;5075882;28;20180;-70
2022/04/07 06:56:15;;;;;;;1.60;1.60;;;10.40;99.90;10.30;98169.00;;;;5078973;28;20534;-70
2022/04/07 06:58:41;;;;;;;2.10;2.00;;;10.60;99.90;10.00;98129.00;;;;5077261;28;20263;-70
2022/04/07 07:01:15;;;;;;;2.70;2.50;;;10.50;99.90;10.00;98149.00;;;;5078661;28;20306;-69
2022/04/07 07:03:40;;;;;;;1.67;1.67;;;10.50;99.90;10.20;98161.00;;;;5079053;28;20178;-70
2022/04/07 07:06:12;;;;;;;1.70;1.70;;;10.60;99.90;10.30;98150.00;;;;5095461;28;20271;-70
2022/04/07 07:08:43;;;;;;;2.97;2.77;;;10.70;99.90;10.50;98274.00;;;;5094811;28;20290;-69
2022/04/07 07:11:14;;;;;;;2.60;2.50;;;10.80;99.90;10.00;98251.00;;;;5084230;28;20215;-72
2022/04/07 07:13:40;;;;;;;3.87;3.77;;;10.50;99.90;9.00;98279.00;;;;5095596;28;20227;-70
2022/04/07 07:16:09;;;;;;;2.80;2.70;;;9.90;99.90;7.70;98279.00;;;;5078479;28;20220;-72
2022/04/07 07:18:38;;;;;;;5.30;2.20;;;8.70;99.90;7.60;98281.00;;;;5078516;28;20177;-72
2022/04/07 07:21:10;;;;;;;2.67;2.57;;;8.30;99.90;7.70;98258.00;;;;5095517;28;20180;-72
2022/04/07 07:23:39;;;;;;;2.30;2.20;;;8.30;99.90;7.70;98244.00;;;;5095801;28;20180;-72
2022/04/07 07:26:13;;;;;;;5.07;2.20;;;8.30;99.90;7.90;98246.00;;;;5099990;28;20204;-71
2022/04/07 07:28:41;;;;;;;2.00;1.90;;;8.40;99.90;7.90;98260.00;;;;5096565;28;20659;-73
2022/04/07 07:31:13;;;;;;;1.83;1.73;;;8.40;99.90;7.90;98306.00;;;;5078647;28;20190;-72
2022/04/07 07:33:44;;;;;;;2.17;2.07;;;8.40;99.90;8.00;98303.00;;;;5095352;28;20704;-72
2022/04/07 07:36:15;;;;;;;6.03;3.03;;;8.40;99.90;8.10;98300.00;;;;5097137;28;20661;-72
2022/04/07 07:38:46;;;;;;;2.57;2.47;;;8.50;99.90;8.40;98295.00;;;;5105321;28;20193;-70
2022/04/07 07:41:21;;;;;;;2.10;2.00;;;8.70;99.90;8.20;98296.00;;;;5086529;28;20215;-73
2022/04/07 07:43:53;;;;;;;1.70;1.70;;;8.70;99.90;8.30;98251.00;;;;5096310;28;20199;-72
2022/04/07 07:46:24;;;;;;;2.33;2.23;;;8.80;99.90;8.60;98244.00;;;;5095619;28;20715;-71
2022/04/07 07:48:50;;;;;;;2.50;2.40;;;9.00;99.90;8.70;98263.00;;;;5094172;28;20180;-71
2022/04/07 07:51:22;;;;;;;2.40;2.20;;;9.10;99.90;8.60;98268.00;;;;5095080;28;20584;-72
2022/04/07 07:53:50;;;;;;;2.40;2.30;;;9.30;99.90;9.20;98264.00;;;;5094168;28;20178;-70
2022/04/07 07:56:16;;;;;;;2.60;2.50;;;9.50;99.90;9.20;98241.00;;;;5089585;28;20238;-71
2022/04/07 07:58:52;;;;;;;2.00;2.00;;;9.60;99.90;9.50;98260.00;;;;5112774;28;20276;-71
2022/04/07 08:01:18;;;;;;;2.93;2.70;;;9.70;99.90;9.80;98263.00;;;;5116279;27;20173;-71
2022/04/07 08:03:50;;;;;;;2.37;2.33;;;10.00;99.90;9.80;98219.00;;;;5114793;28;20637;-71
2022/04/07 08:06:21;;;;;;;2.80;2.70;;;10.00;99.90;9.60;98252.00;;;;5102794;28;20202;-60
2022/04/07 08:08:52;;;;;;;2.50;2.40;;;10.00;99.90;9.50;98271.00;;;;5103494;28;20266;-71
2022/04/07 08:11:23;;;;;;;2.47;2.37;;;10.00;99.90;9.50;98253.00;;;;5088440;28;20575;-70
2022/04/07 08:13:54;;;;;;;2.20;2.10;;;10.10;99.90;9.90;98259.00;;;;5087106;28;20183;-70
2022/04/07 08:16:29;;;;;;;1.93;1.83;;;10.30;99.90;9.80;98228.00;;;;5089043;28;20236;-69
2022/04/07 08:19:01;;;;;;;2.27;2.17;;;10.30;99.90;9.90;98271.00;;;;5103400;28;20313;-70
2022/04/07 08:21:27;;;;;;;2.03;1.93;;;10.30;99.90;9.80;98234.00;;;;5106453;28;20186;-70
2022/04/07 08:23:58;;;;;;;3.67;2.70;;;10.40;99.90;9.70;98272.00;;;;5096952;28;20269;-69
2022/04/07 08:26:27;;;;;;;1.80;1.70;;;10.30;99.90;10.20;98274.00;;;;5114871;28;20191;-70
2022/04/07 08:28:53;;;;;;;2.37;2.23;;;10.50;99.90;10.10;98284.00;;;;5114963;28;20176;-70
2022/04/07 08:31:21;;;;;;;1.53;1.53;;;10.60;99.90;10.00;98245.00;;;;5114898;28;20190;-70
2022/04/07 08:33:47;;;;;;;3.43;2.10;;;10.50;99.90;10.20;98240.00;;;;5098882;28;20204;-69
2022/04/07 08:36:18;;;;;;;1.80;1.70;;;10.60;99.90;10.20;98262.00;;;;5089299;28;20711;-70
2022/04/07 08:38:50;;;;;;;1.80;1.70;;;10.70;99.90;10.20;98263.00;;;;5114208;28;20187;-68
2022/04/07 08:41:21;;;;;;;1.80;1.80;;;10.70;99.90;10.30;98266.00;;;;5093445;28;20187;-67
2022/04/07 08:44:00;;;;;;;1.80;1.80;;;10.80;99.90;10.10;98257.00;;;;5093736;28;20177;-68
2022/04/07 08:46:30;;;;;;;1.80;1.80;;;10.70;99.90;10.30;98240.00;;;;5076786;28;20226;-68
2022/04/07 08:49:06;;;;;;;2.43;2.23;;;10.80;99.90;10.30;98237.00;;;;5077205;28;20589;-67
2022/04/07 08:51:37;;;;;;;2.40;2.20;;;10.90;99.90;10.30;98242.00;;;;5076488;28;20215;-59
2022/04/07 08:54:14;;;;;;;3.13;1.83;;;11.00;99.90;10.90;98243.00;;;;5093454;28;20666;-66
2022/04/07 08:56:42;;;;;;;3.03;2.30;;;11.30;99.90;11.10;98256.00;;;;5093030;28;20184;-61
2022/04/07 08:59:08;;;;;;;1.93;1.83;;;11.50;99.90;11.10;98237.00;;;;5093510;28;20187;-68
2022/04/07 09:01:48;;;;;;;2.80;1.90;;;11.70;99.90;11.30;98245.00;;;;5076641;28;20190;-70
2022/04/07 09:04:23;;;;;;;1.70;1.60;;;11.80;99.90;11.00;98237.00;;;;5094219;28;20666;-70
2022/04/07 09:07:01;;;;;;;4.63;1.80;;;11.80;99.90;11.40;98231.00;;;;5092863;28;20207;-70
2022/04/07 09:09:31;;;;;;;2.10;2.00;;;11.90;99.90;11.60;98223.00;;;;5076029;28;20182;-70
2022/04/07 09:11:58;;;;;;;1.30;1.30;;;12.10;99.90;11.20;98234.00;;;;5076503;28;20276;-70
2022/04/07 09:14:24;;;;;;;1.80;1.70;;;12.00;99.90;11.60;98242.00;;;;5093388;28;20193;-70
2022/04/07 09:16:55;;;;;;;1.50;1.50;;;12.20;99.90;11.60;98239.00;;;;5075920;28;20636;-70
2022/04/07 09:19:27;;;;;;;3.23;2.13;;;12.20;99.90;12.10;98252.00;;;;5093980;28;20177;-69
2022/04/07 09:22:13;;;;;;;2.10;1.97;;;12.70;99.90;11.40;98260.00;;;;5075732;28;20182;-70
2022/04/07 09:24:45;;;;;;;1.83;1.73;;;12.20;99.90;11.80;98266.00;;;;5093250;28;20182;-70
2022/04/07 09:27:12;;;;;;;3.50;3.40;;;12.40;99.90;12.60;98260.00;;;;5093677;28;20618;-69
2022/04/07 09:29:41;;;;;;;1.73;1.63;;;12.90;99.90;12.10;98270.00;;;;5093016;28;20180;-70
2022/04/07 09:32:24;;;;;;;1.20;1.20;;;12.80;99.90;11.80;98258.00;;;;5092768;28;20204;-68
2022/04/07 09:35:00;;;;;;;5.60;1.90;;;12.80;99.90;12.00;98262.00;;;;5094017;28;20248;-69
2022/04/07 09:37:31;;;;;;;4.83;1.50;;;12.60;99.90;11.60;98238.00;;;;5075542;28;20183;-63
2022/04/07 09:40:18;;;;;;;1.20;1.20;;;12.40;99.90;12.00;98273.00;;;;5092181;28;20175;-70
2022/04/07 09:42:44;;;;;;;1.57;1.20;;;12.60;99.90;11.80;98256.00;;;;5105908;28;20237;-70
2022/04/07 09:45:12;;;;;;;1.60;1.50;;;12.50;99.90;12.50;98280.00;;;;5113154;28;20327;-69
2022/04/07 09:47:46;;;;;;;1.30;1.30;;;12.90;99.90;12.40;98258.00;;;;5095652;28;20278;-70
2022/04/07 09:50:29;;;;;;;3.17;1.60;;;13.10;99.90;12.20;98297.00;;;;5113651;28;20182;-69
2022/04/07 09:53:05;;;;;;;4.83;1.90;;;12.90;99.90;12.10;98301.00;;;;5113007;28;20561;-70
2022/04/07 09:55:37;;;;;;;3.10;1.47;;;12.80;99.90;12.00;98295.00;;;;5095796;28;20266;-70
2022/04/07 09:58:07;;;;;;;3.70;1.33;;;12.60;99.90;12.80;98286.00;;;;5114335;28;20175;-69
2022/04/07 10:00:33;;;;;;;1.00;1.00;;;13.10;99.90;12.40;98291.00;;;;5112386;28;20159;-69
2022/04/07 10:03:02;;;;;;;7.53;2.07;;;13.10;99.90;12.00;98308.00;;;;5112982;28;20236;-69
2022/04/07 10:05:29;;;;;;;3.40;2.13;;;12.70;99.90;11.90;98306.00;;;;5095968;28;20174;-69
2022/04/07 10:07:57;;;;;;;1.63;1.53;;;12.50;99.90;12.20;98319.00;;;;5095847;28;20281;-68
2022/04/07 10:10:24;;;;;;;2.30;1.47;;;12.60;99.90;12.20;98337.00;;;;5112833;28;20189;-69
2022/04/07 10:12:51;;;;;;;4.83;1.83;;;12.70;99.90;12.60;98331.00;;;;5099443;28;20217;-68
2022/04/07 10:15:18;;;;;;;2.20;0.80;;;13.00;99.90;12.70;98333.00;;;;5091979;28;20183;-68
2022/04/07 10:17:45;;;;;;;3.83;0.90;;;13.00;99.90;12.80;98340.00;;;;5091823;28;20176;-68
2022/04/07 10:20:19;;;;;;;5.53;1.03;;;13.20;99.90;13.20;98359.00;;;;5103162;28;20185;-68
2022/04/07 10:33:46;;;;;;;2.43;1.03;;;13.00;99.90;12.70;98421.00;;;;5070286;28;20574;-68
2022/04/07 10:36:22;;;;;;;1.23;0.60;;;13.00;99.90;12.70;98369.00;;;;5066136;28;20184;-68
2022/04/07 10:38:54;;;;;;;2.97;0.80;;;13.10;99.90;12.80;98414.00;;;;5066069;28;20291;-68
2022/04/07 10:41:38;;;;;;;3.50;1.40;;;13.10;99.90;12.70;98407.00;;;;5064326;28;20259;-68
2022/04/07 10:44:22;;;;;;;0.83;0.80;;;13.10;99.90;12.80;98409.00;;;;5030309;28;20184;-67
2022/04/07 10:46:47;;;;;;;0.80;0.60;;;13.10;99.90;13.20;98415.00;;;;5029160;28;20182;-67
2022/04/07 10:49:24;;;;;;;3.63;1.10;;;13.40;99.90;13.00;98439.00;;;;5028621;28;20185;-67
2022/04/07 10:51:55;;;;;;;5.33;1.43;;;13.50;99.90;13.00;98440.00;;;;5028811;28;20351;-67
2022/04/07 10:54:22;;;;;;;2.17;0.60;;;13.30;99.90;12.80;98446.00;;;;5028580;28;20552;-67
2022/04/07 10:56:53;;;;;;;5.83;1.50;;;13.10;99.90;12.80;98448.00;;;;5029350;28;20184;-67
2022/04/07 10:59:21;;;;;;;2.43;0.73;;;13.10;99.90;13.00;98459.00;;;;5029194;28;20208;-67
2022/04/07 11:02:12;;;;;;;1.13;1.03;;;13.20;99.90;13.40;98480.00;;;;5036320;28;20197;-67
2022/04/07 11:04:43;;;;;;;5.73;0.50;;;13.60;99.90;14.20;98480.00;;;;5049931;28;20210;-67
2022/04/07 11:07:11;;;;;;;3.23;0.87;;;14.00;99.90;14.70;98528.00;;;;5032259;28;20179;-67
2022/04/07 11:09:49;;;;;;;0.60;0.60;;;14.60;99.90;14.50;98529.00;;;;5049942;28;20182;-67
2022/04/07 11:12:33;;;;;;;0.30;0.30;;;14.60;99.90;14.40;98554.00;;;;5049648;28;20668;-67
2022/04/07 11:15:01;;;;;;;1.93;1.40;;;14.50;99.90;13.40;98504.00;;;;5050201;28;20178;-67
2022/04/07 11:17:37;;;;;;;2.50;1.00;;;13.70;99.90;12.90;98528.00;;;;5063547;28;20186;-67
2022/04/07 11:20:24;;;;;;;3.40;1.50;;;13.40;99.90;12.70;98535.00;;;;5048609;28;20184;-67
2022/04/07 11:23:08;;;;;;;7.07;1.70;;;13.20;99.90;12.60;98546.00;;;;5064720;28;20240;-67
2022/04/07 11:25:39;;;;;;;4.87;0.93;;;12.90;99.90;13.10;98550.00;;;;5057057;28;20239;-67